ZKMDF NZCH-NZQN
Flight info
| Callsign | ZKMDF |
|---|---|
| Flight time | 1h 27m |
| Altitude | 9497 |
| Route | GUPUT Y266 ELRUV |
| Aircraft | A109/L-SDFGRY/C |
Departure
| Time | 2026-05-09 02:54 |
|---|---|
| Airport | Christchurch International Airport (NZCH) |
Arrival
| Time | 2026-05-09 04:21 |
|---|---|
| Airport | Queenstown Airport (NZQN) |
| Time | Latitude | Longitude | Altitude | Speed | Heading |
|---|---|---|---|---|---|
| 2026-05-09 02:31 | -43.48405 | 172.52829 | 116 ft | 0 kts | 41° |
| 2026-05-09 02:50 | -43.48410 | 172.52828 | 125 ft | 3 kts | 338° |
| 2026-05-09 02:51 | -43.48413 | 172.52828 | 126 ft | 1 kts | 272° |
| 2026-05-09 02:51 | -43.48389 | 172.52754 | 129 ft | 17 kts | 279° |
| 2026-05-09 02:51 | -43.48379 | 172.52556 | 139 ft | 18 kts | 282° |
| 2026-05-09 02:51 | -43.48425 | 172.52458 | 131 ft | 9 kts | 150° |
| 2026-05-09 02:52 | -43.48455 | 172.52467 | 142 ft | 1 kts | 130° |
| 2026-05-09 02:52 | -43.48455 | 172.52473 | 154 ft | 1 kts | 138° |
| 2026-05-09 02:52 | -43.48465 | 172.52461 | 155 ft | 1 kts | 124° |
| 2026-05-09 02:52 | -43.48482 | 172.52498 | 204 ft | 13 kts | 124° |
| 2026-05-09 02:53 | -43.48591 | 172.52702 | 283 ft | 40 kts | 123° |
| 2026-05-09 02:53 | -43.48828 | 172.53101 | 346 ft | 66 kts | 132° |
| 2026-05-09 02:53 | -43.49165 | 172.53607 | 493 ft | 78 kts | 124° |
| 2026-05-09 02:53 | -43.49558 | 172.54263 | 636 ft | 101 kts | 124° |
| 2026-05-09 02:54 | -43.50082 | 172.55074 | 809 ft | 123 kts | 131° |
| 2026-05-09 02:54 | -43.50810 | 172.55774 | 991 ft | 133 kts | 152° |
| 2026-05-09 02:54 | -43.51719 | 172.56020 | 1170 ft | 135 kts | 178° |
| 2026-05-09 02:54 | -43.52622 | 172.55666 | 1351 ft | 135 kts | 212° |
| 2026-05-09 02:55 | -43.53304 | 172.54839 | 1521 ft | 132 kts | 236° |
| 2026-05-09 02:55 | -43.53805 | 172.53778 | 1695 ft | 130 kts | 245° |
| 2026-05-09 02:55 | -43.54274 | 172.52714 | 1865 ft | 130 kts | 244° |
| 2026-05-09 02:55 | -43.54767 | 172.51645 | 2012 ft | 137 kts | 244° |
| 2026-05-09 02:56 | -43.55291 | 172.50510 | 2193 ft | 143 kts | 242° |
| 2026-05-09 02:56 | -43.55823 | 172.49353 | 2373 ft | 145 kts | 242° |
| 2026-05-09 02:56 | -43.56358 | 172.48195 | 2551 ft | 144 kts | 243° |
| 2026-05-09 02:56 | -43.56894 | 172.47028 | 2720 ft | 143 kts | 242° |
| 2026-05-09 02:57 | -43.57423 | 172.45877 | 2892 ft | 143 kts | 243° |
| 2026-05-09 02:57 | -43.57956 | 172.44720 | 3122 ft | 143 kts | 243° |
| 2026-05-09 02:57 | -43.58487 | 172.43568 | 3369 ft | 144 kts | 243° |
| 2026-05-09 02:57 | -43.58869 | 172.42731 | 3550 ft | 144 kts | 243° |
| 2026-05-09 02:58 | -43.59398 | 172.41586 | 3797 ft | 143 kts | 243° |
| 2026-05-09 02:58 | -43.59914 | 172.40424 | 4043 ft | 141 kts | 246° |
| 2026-05-09 02:58 | -43.60349 | 172.39256 | 4287 ft | 139 kts | 250° |
| 2026-05-09 02:58 | -43.60760 | 172.38055 | 4498 ft | 138 kts | 250° |
| 2026-05-09 02:59 | -43.61184 | 172.36852 | 4702 ft | 138 kts | 249° |
| 2026-05-09 02:59 | -43.61602 | 172.35663 | 4898 ft | 137 kts | 249° |
| 2026-05-09 02:59 | -43.61988 | 172.34560 | 5082 ft | 136 kts | 251° |
| 2026-05-09 02:59 | -43.62409 | 172.33351 | 5300 ft | 134 kts | 251° |
| 2026-05-09 03:00 | -43.62815 | 172.32184 | 5504 ft | 133 kts | 250° |
| 2026-05-09 03:00 | -43.63221 | 172.31030 | 5703 ft | 134 kts | 250° |
| 2026-05-09 03:00 | -43.63622 | 172.29878 | 5909 ft | 132 kts | 250° |
| 2026-05-09 03:00 | -43.64008 | 172.28769 | 6104 ft | 131 kts | 250° |
| 2026-05-09 03:01 | -43.64405 | 172.27629 | 6297 ft | 131 kts | 250° |
| 2026-05-09 03:01 | -43.64802 | 172.26497 | 6493 ft | 131 kts | 250° |
| 2026-05-09 03:01 | -43.65192 | 172.25372 | 6697 ft | 131 kts | 249° |
| 2026-05-09 03:01 | -43.65587 | 172.24239 | 6900 ft | 130 kts | 249° |
| 2026-05-09 03:02 | -43.65978 | 172.23112 | 7095 ft | 131 kts | 249° |
| 2026-05-09 03:02 | -43.66324 | 172.22118 | 7258 ft | 131 kts | 249° |
| 2026-05-09 03:02 | -43.66722 | 172.20969 | 7457 ft | 131 kts | 249° |
| 2026-05-09 03:02 | -43.67114 | 172.19841 | 7662 ft | 131 kts | 248° |
| 2026-05-09 03:03 | -43.67509 | 172.18704 | 7869 ft | 129 kts | 247° |
| 2026-05-09 03:03 | -43.67892 | 172.17603 | 8066 ft | 128 kts | 247° |
| 2026-05-09 03:03 | -43.68279 | 172.16489 | 8267 ft | 128 kts | 246° |
| 2026-05-09 03:03 | -43.68664 | 172.15379 | 8465 ft | 129 kts | 246° |
| 2026-05-09 03:04 | -43.69054 | 172.14253 | 8659 ft | 129 kts | 246° |
| 2026-05-09 03:04 | -43.69441 | 172.13135 | 8849 ft | 129 kts | 246° |
| 2026-05-09 03:04 | -43.69823 | 172.12033 | 9029 ft | 128 kts | 245° |
| 2026-05-09 03:04 | -43.70206 | 172.10925 | 9224 ft | 127 kts | 245° |
| 2026-05-09 03:05 | -43.70578 | 172.09848 | 9438 ft | 120 kts | 244° |
| 2026-05-09 03:05 | -43.70929 | 172.08832 | 9622 ft | 115 kts | 245° |
| 2026-05-09 03:05 | -43.71276 | 172.07840 | 9822 ft | 114 kts | 244° |
| 2026-05-09 03:05 | -43.71615 | 172.06851 | 9928 ft | 114 kts | 244° |
| 2026-05-09 03:06 | -43.71961 | 172.05849 | 9976 ft | 114 kts | 244° |
| 2026-05-09 03:06 | -43.72301 | 172.04866 | 9998 ft | 114 kts | 244° |
| 2026-05-09 03:06 | -43.72634 | 172.03905 | 10005 ft | 115 kts | 243° |
| 2026-05-09 03:06 | -43.72989 | 172.02879 | 9994 ft | 115 kts | 244° |
| 2026-05-09 03:07 | -43.73333 | 172.01878 | 9986 ft | 115 kts | 244° |
| 2026-05-09 03:07 | -43.73682 | 172.00868 | 9981 ft | 116 kts | 244° |
| 2026-05-09 03:07 | -43.74026 | 171.99875 | 9980 ft | 115 kts | 244° |
| 2026-05-09 03:07 | -43.74373 | 171.98865 | 9974 ft | 116 kts | 245° |
| 2026-05-09 03:08 | -43.74716 | 171.97867 | 9978 ft | 116 kts | 245° |
| 2026-05-09 03:08 | -43.75071 | 171.96835 | 9978 ft | 123 kts | 246° |
| 2026-05-09 03:08 | -43.75459 | 171.95717 | 9978 ft | 134 kts | 245° |
| 2026-05-09 03:08 | -43.75868 | 171.94521 | 9987 ft | 139 kts | 245° |
| 2026-05-09 03:09 | -43.76287 | 171.93300 | 9995 ft | 141 kts | 244° |
| 2026-05-09 03:09 | -43.76705 | 171.92082 | 9999 ft | 140 kts | 244° |
| 2026-05-09 03:09 | -43.77124 | 171.90860 | 10001 ft | 141 kts | 244° |
| 2026-05-09 03:09 | -43.77546 | 171.89635 | 9988 ft | 141 kts | 244° |
| 2026-05-09 03:10 | -43.77962 | 171.88425 | 9981 ft | 140 kts | 244° |
| 2026-05-09 03:10 | -43.78380 | 171.87204 | 9983 ft | 140 kts | 244° |
| 2026-05-09 03:10 | -43.78803 | 171.85973 | 9976 ft | 140 kts | 244° |
| 2026-05-09 03:10 | -43.79218 | 171.84766 | 9982 ft | 140 kts | 244° |
| 2026-05-09 03:11 | -43.79638 | 171.83536 | 9975 ft | 140 kts | 244° |
| 2026-05-09 03:11 | -43.80057 | 171.82315 | 9968 ft | 140 kts | 244° |
| 2026-05-09 03:11 | -43.80471 | 171.81097 | 9963 ft | 139 kts | 244° |
| 2026-05-09 03:11 | -43.80880 | 171.79906 | 9972 ft | 139 kts | 245° |
| 2026-05-09 03:12 | -43.81295 | 171.78688 | 9977 ft | 139 kts | 245° |
| 2026-05-09 03:12 | -43.81712 | 171.77473 | 9971 ft | 138 kts | 245° |
| 2026-05-09 03:12 | -43.82119 | 171.76279 | 9978 ft | 139 kts | 245° |
| 2026-05-09 03:12 | -43.82531 | 171.75070 | 9985 ft | 139 kts | 245° |
| 2026-05-09 03:13 | -43.83365 | 171.72626 | 9984 ft | 141 kts | 245° |
| 2026-05-09 03:13 | -43.83813 | 171.71426 | 9976 ft | 141 kts | 242° |
| 2026-05-09 03:13 | -43.84312 | 171.70261 | 9981 ft | 140 kts | 239° |
| 2026-05-09 03:14 | -43.84805 | 171.69110 | 9989 ft | 139 kts | 240° |
| 2026-05-09 03:14 | -43.85302 | 171.67938 | 9993 ft | 139 kts | 239° |
| 2026-05-09 03:14 | -43.85799 | 171.66783 | 9979 ft | 141 kts | 240° |
| 2026-05-09 03:14 | -43.86297 | 171.65614 | 9971 ft | 142 kts | 240° |
| 2026-05-09 03:15 | -43.86792 | 171.64455 | 9982 ft | 141 kts | 240° |
| 2026-05-09 03:15 | -43.87291 | 171.63283 | 9972 ft | 140 kts | 240° |
| 2026-05-09 03:15 | -43.87785 | 171.62126 | 9959 ft | 140 kts | 240° |
| 2026-05-09 03:15 | -43.88285 | 171.60951 | 9962 ft | 141 kts | 240° |
| 2026-05-09 03:16 | -43.88785 | 171.59776 | 9972 ft | 140 kts | 240° |
| 2026-05-09 03:16 | -43.89281 | 171.58615 | 9952 ft | 140 kts | 241° |
| 2026-05-09 03:16 | -43.89771 | 171.57461 | 9945 ft | 140 kts | 240° |
| 2026-05-09 03:16 | -43.90269 | 171.56296 | 9938 ft | 140 kts | 241° |
| 2026-05-09 03:17 | -43.90765 | 171.55127 | 9941 ft | 140 kts | 240° |
| 2026-05-09 03:17 | -43.91260 | 171.53963 | 9943 ft | 140 kts | 240° |
| 2026-05-09 03:17 | -43.91749 | 171.52817 | 9943 ft | 139 kts | 240° |
| 2026-05-09 03:17 | -43.92245 | 171.51648 | 9951 ft | 139 kts | 240° |
| 2026-05-09 03:18 | -43.92736 | 171.50494 | 9961 ft | 140 kts | 240° |
| 2026-05-09 03:18 | -43.93232 | 171.49327 | 9962 ft | 141 kts | 240° |
| 2026-05-09 03:18 | -43.93724 | 171.48171 | 9959 ft | 140 kts | 240° |
| 2026-05-09 03:18 | -43.94222 | 171.46997 | 9960 ft | 140 kts | 240° |
| 2026-05-09 03:19 | -43.94716 | 171.45834 | 9963 ft | 140 kts | 240° |
| 2026-05-09 03:19 | -43.95209 | 171.44670 | 9969 ft | 141 kts | 241° |
| 2026-05-09 03:19 | -43.95705 | 171.43494 | 9973 ft | 141 kts | 241° |
| 2026-05-09 03:19 | -43.96203 | 171.42320 | 9965 ft | 140 kts | 241° |
| 2026-05-09 03:20 | -43.96696 | 171.41154 | 9977 ft | 140 kts | 241° |
| 2026-05-09 03:20 | -43.97192 | 171.39986 | 9975 ft | 140 kts | 241° |
| 2026-05-09 03:20 | -43.97684 | 171.38823 | 9970 ft | 141 kts | 240° |
| 2026-05-09 03:20 | -43.98185 | 171.37640 | 9947 ft | 140 kts | 241° |
| 2026-05-09 03:21 | -43.98675 | 171.36481 | 9952 ft | 140 kts | 241° |
| 2026-05-09 03:21 | -43.99170 | 171.35309 | 9940 ft | 140 kts | 241° |
| 2026-05-09 03:21 | -43.99637 | 171.34149 | 9944 ft | 139 kts | 243° |
| 2026-05-09 03:21 | -44.00126 | 171.32976 | 9955 ft | 139 kts | 240° |
| 2026-05-09 03:22 | -44.00615 | 171.31821 | 9943 ft | 138 kts | 241° |
| 2026-05-09 03:22 | -44.01107 | 171.30661 | 9938 ft | 138 kts | 241° |
| 2026-05-09 03:22 | -44.01593 | 171.29504 | 9941 ft | 138 kts | 241° |
| 2026-05-09 03:22 | -44.02083 | 171.28345 | 9934 ft | 139 kts | 242° |
| 2026-05-09 03:23 | -44.02566 | 171.27196 | 9947 ft | 139 kts | 241° |
| 2026-05-09 03:23 | -44.03057 | 171.26030 | 9952 ft | 139 kts | 241° |
| 2026-05-09 03:23 | -44.03549 | 171.24863 | 9954 ft | 140 kts | 241° |
| 2026-05-09 03:23 | -44.04039 | 171.23695 | 9954 ft | 140 kts | 241° |
| 2026-05-09 03:24 | -44.04534 | 171.22522 | 9962 ft | 139 kts | 241° |
| 2026-05-09 03:24 | -44.05017 | 171.21374 | 9962 ft | 139 kts | 242° |
| 2026-05-09 03:24 | -44.05510 | 171.20200 | 9969 ft | 139 kts | 241° |
| 2026-05-09 03:24 | -44.05998 | 171.19040 | 9960 ft | 138 kts | 241° |
| 2026-05-09 03:25 | -44.06482 | 171.17886 | 9967 ft | 138 kts | 242° |
| 2026-05-09 03:25 | -44.06969 | 171.16728 | 9963 ft | 137 kts | 241° |
| 2026-05-09 03:25 | -44.07447 | 171.15590 | 9974 ft | 137 kts | 241° |
| 2026-05-09 03:25 | -44.07932 | 171.14438 | 9981 ft | 138 kts | 242° |
| 2026-05-09 03:26 | -44.08417 | 171.13280 | 9976 ft | 138 kts | 241° |
| 2026-05-09 03:26 | -44.08898 | 171.12129 | 9965 ft | 137 kts | 242° |
| 2026-05-09 03:26 | -44.09378 | 171.10983 | 9968 ft | 138 kts | 241° |
| 2026-05-09 03:26 | -44.09860 | 171.09837 | 9966 ft | 138 kts | 242° |
| 2026-05-09 03:27 | -44.10374 | 171.08699 | 9969 ft | 139 kts | 239° |
| 2026-05-09 03:27 | -44.10876 | 171.07542 | 9967 ft | 139 kts | 243° |
| 2026-05-09 03:27 | -44.11362 | 171.06363 | 9965 ft | 138 kts | 242° |
| 2026-05-09 03:27 | -44.11846 | 171.05209 | 9966 ft | 138 kts | 242° |
| 2026-05-09 03:28 | -44.12331 | 171.04050 | 9964 ft | 139 kts | 242° |
| 2026-05-09 03:28 | -44.12815 | 171.02889 | 9956 ft | 139 kts | 241° |
| 2026-05-09 03:28 | -44.13305 | 171.01715 | 9962 ft | 139 kts | 242° |
| 2026-05-09 03:28 | -44.13794 | 171.00543 | 9965 ft | 138 kts | 242° |
| 2026-05-09 03:29 | -44.14273 | 170.99397 | 9967 ft | 137 kts | 241° |
| 2026-05-09 03:29 | -44.14754 | 170.98241 | 9958 ft | 137 kts | 242° |
| 2026-05-09 03:29 | -44.15235 | 170.97092 | 9964 ft | 137 kts | 242° |
| 2026-05-09 03:29 | -44.15705 | 170.95960 | 9962 ft | 136 kts | 242° |
| 2026-05-09 03:30 | -44.16186 | 170.94806 | 9958 ft | 137 kts | 242° |
| 2026-05-09 03:30 | -44.16666 | 170.93655 | 9960 ft | 137 kts | 242° |
| 2026-05-09 03:30 | -44.17136 | 170.92525 | 9963 ft | 137 kts | 243° |
| 2026-05-09 03:30 | -44.17617 | 170.91365 | 9966 ft | 137 kts | 242° |
| 2026-05-09 03:31 | -44.18092 | 170.90225 | 9967 ft | 136 kts | 243° |
| 2026-05-09 03:31 | -44.18567 | 170.89082 | 9960 ft | 136 kts | 242° |
| 2026-05-09 03:31 | -44.19043 | 170.87936 | 9945 ft | 136 kts | 243° |
| 2026-05-09 03:31 | -44.19515 | 170.86806 | 9945 ft | 136 kts | 243° |
| 2026-05-09 03:32 | -44.19986 | 170.85667 | 9955 ft | 137 kts | 243° |
| 2026-05-09 03:32 | -44.20464 | 170.84512 | 9959 ft | 137 kts | 243° |
| 2026-05-09 03:32 | -44.20942 | 170.83366 | 9965 ft | 138 kts | 243° |
| 2026-05-09 03:32 | -44.21423 | 170.82204 | 9969 ft | 137 kts | 242° |
| 2026-05-09 03:33 | -44.21902 | 170.81049 | 9963 ft | 137 kts | 242° |
| 2026-05-09 03:33 | -44.22381 | 170.79900 | 9969 ft | 137 kts | 242° |
| 2026-05-09 03:33 | -44.22854 | 170.78755 | 9975 ft | 137 kts | 242° |
| 2026-05-09 03:33 | -44.23332 | 170.77599 | 9973 ft | 137 kts | 242° |
| 2026-05-09 03:34 | -44.23817 | 170.76433 | 9981 ft | 138 kts | 243° |
| 2026-05-09 03:34 | -44.24289 | 170.75285 | 9981 ft | 138 kts | 243° |
| 2026-05-09 03:34 | -44.24770 | 170.74121 | 9988 ft | 137 kts | 243° |
| 2026-05-09 03:34 | -44.25240 | 170.72980 | 9991 ft | 136 kts | 243° |
| 2026-05-09 03:35 | -44.25719 | 170.71828 | 9987 ft | 135 kts | 243° |
| 2026-05-09 03:35 | -44.26183 | 170.70699 | 9981 ft | 136 kts | 244° |
| 2026-05-09 03:35 | -44.26660 | 170.69548 | 9981 ft | 137 kts | 243° |
| 2026-05-09 03:35 | -44.27134 | 170.68394 | 9981 ft | 137 kts | 243° |
| 2026-05-09 03:36 | -44.27612 | 170.67239 | 9986 ft | 137 kts | 243° |
| 2026-05-09 03:36 | -44.28086 | 170.66087 | 9990 ft | 136 kts | 243° |
| 2026-05-09 03:36 | -44.28562 | 170.64935 | 9996 ft | 137 kts | 243° |
| 2026-05-09 03:36 | -44.29040 | 170.63777 | 10003 ft | 137 kts | 243° |
| 2026-05-09 03:37 | -44.29508 | 170.62636 | 10002 ft | 136 kts | 243° |
| 2026-05-09 03:37 | -44.29981 | 170.61491 | 10004 ft | 136 kts | 243° |
| 2026-05-09 03:37 | -44.30442 | 170.60365 | 9997 ft | 135 kts | 243° |
| 2026-05-09 03:37 | -44.30913 | 170.59225 | 9995 ft | 135 kts | 243° |
| 2026-05-09 03:38 | -44.31380 | 170.58090 | 9996 ft | 135 kts | 243° |
| 2026-05-09 03:38 | -44.31844 | 170.56958 | 9992 ft | 135 kts | 243° |
| 2026-05-09 03:38 | -44.32317 | 170.55811 | 9991 ft | 136 kts | 243° |
| 2026-05-09 03:38 | -44.32788 | 170.54662 | 9992 ft | 136 kts | 243° |
| 2026-05-09 03:39 | -44.33260 | 170.53513 | 9991 ft | 136 kts | 243° |
| 2026-05-09 03:39 | -44.33730 | 170.52365 | 9995 ft | 136 kts | 243° |
| 2026-05-09 03:39 | -44.34203 | 170.51213 | 9998 ft | 135 kts | 244° |
| 2026-05-09 03:39 | -44.34665 | 170.50082 | 10000 ft | 134 kts | 243° |
| 2026-05-09 03:40 | -44.35132 | 170.48947 | 9995 ft | 134 kts | 244° |
| 2026-05-09 03:40 | -44.35595 | 170.47815 | 9994 ft | 135 kts | 244° |
| 2026-05-09 03:40 | -44.36056 | 170.46687 | 9994 ft | 135 kts | 243° |
| 2026-05-09 03:40 | -44.36523 | 170.45552 | 9992 ft | 135 kts | 243° |
| 2026-05-09 03:41 | -44.36990 | 170.44408 | 9992 ft | 135 kts | 243° |
| 2026-05-09 03:41 | -44.37458 | 170.43268 | 9994 ft | 135 kts | 244° |
| 2026-05-09 03:41 | -44.37925 | 170.42119 | 9997 ft | 136 kts | 244° |
| 2026-05-09 03:41 | -44.38393 | 170.40979 | 10002 ft | 136 kts | 244° |
| 2026-05-09 03:42 | -44.38865 | 170.39818 | 10008 ft | 137 kts | 243° |
| 2026-05-09 03:42 | -44.39338 | 170.38664 | 10010 ft | 137 kts | 244° |
| 2026-05-09 03:42 | -44.39812 | 170.37501 | 10015 ft | 136 kts | 244° |
| 2026-05-09 03:42 | -44.40281 | 170.36350 | 10012 ft | 135 kts | 244° |
| 2026-05-09 03:43 | -44.40746 | 170.35207 | 10008 ft | 135 kts | 244° |
| 2026-05-09 03:43 | -44.41194 | 170.34049 | 10012 ft | 136 kts | 245° |
| 2026-05-09 03:43 | -44.41659 | 170.32899 | 10012 ft | 134 kts | 244° |
| 2026-05-09 03:43 | -44.42122 | 170.31766 | 10008 ft | 133 kts | 244° |
| 2026-05-09 03:44 | -44.42580 | 170.30644 | 10007 ft | 133 kts | 244° |
| 2026-05-09 03:44 | -44.43041 | 170.29513 | 10003 ft | 134 kts | 244° |
| 2026-05-09 03:44 | -44.43492 | 170.28400 | 10002 ft | 133 kts | 244° |
| 2026-05-09 03:44 | -44.43956 | 170.27263 | 10002 ft | 135 kts | 244° |
| 2026-05-09 03:45 | -44.44419 | 170.26123 | 9999 ft | 136 kts | 244° |
| 2026-05-09 03:45 | -44.44890 | 170.24962 | 10004 ft | 135 kts | 244° |
| 2026-05-09 03:45 | -44.45357 | 170.23814 | 10003 ft | 136 kts | 244° |
| 2026-05-09 03:45 | -44.45822 | 170.22667 | 10006 ft | 136 kts | 245° |
| 2026-05-09 03:46 | -44.46289 | 170.21518 | 10007 ft | 136 kts | 244° |
| 2026-05-09 03:46 | -44.46753 | 170.20377 | 10004 ft | 135 kts | 245° |
| 2026-05-09 03:46 | -44.47218 | 170.19229 | 10004 ft | 136 kts | 245° |
| 2026-05-09 03:46 | -44.47686 | 170.18072 | 10010 ft | 135 kts | 244° |
| 2026-05-09 03:47 | -44.48149 | 170.16933 | 10010 ft | 135 kts | 245° |
| 2026-05-09 03:47 | -44.48609 | 170.15797 | 10006 ft | 134 kts | 245° |
| 2026-05-09 03:47 | -44.49068 | 170.14661 | 10002 ft | 133 kts | 245° |
| 2026-05-09 03:47 | -44.49531 | 170.13521 | 10003 ft | 133 kts | 244° |
| 2026-05-09 03:48 | -44.49984 | 170.12402 | 10000 ft | 134 kts | 245° |
| 2026-05-09 03:48 | -44.50445 | 170.11261 | 10005 ft | 135 kts | 245° |
| 2026-05-09 03:48 | -44.50903 | 170.10126 | 10010 ft | 134 kts | 245° |
| 2026-05-09 03:48 | -44.51361 | 170.08990 | 10007 ft | 134 kts | 245° |
| 2026-05-09 03:49 | -44.51822 | 170.07852 | 10009 ft | 134 kts | 244° |
| 2026-05-09 03:49 | -44.52285 | 170.06705 | 10008 ft | 134 kts | 244° |
| 2026-05-09 03:49 | -44.52747 | 170.05559 | 10005 ft | 135 kts | 244° |
| 2026-05-09 03:49 | -44.53211 | 170.04413 | 10008 ft | 136 kts | 245° |
| 2026-05-09 03:50 | -44.53673 | 170.03261 | 10013 ft | 135 kts | 245° |
| 2026-05-09 03:50 | -44.54140 | 170.02104 | 10016 ft | 135 kts | 244° |
| 2026-05-09 03:50 | -44.54604 | 170.00955 | 10015 ft | 136 kts | 245° |
| 2026-05-09 03:50 | -44.55069 | 169.99795 | 10016 ft | 135 kts | 244° |
| 2026-05-09 03:51 | -44.55529 | 169.98660 | 10021 ft | 134 kts | 244° |
| 2026-05-09 03:51 | -44.55986 | 169.97523 | 10023 ft | 134 kts | 245° |
| 2026-05-09 03:51 | -44.56449 | 169.96367 | 10029 ft | 134 kts | 245° |
| 2026-05-09 03:51 | -44.56905 | 169.95241 | 10035 ft | 134 kts | 244° |
| 2026-05-09 03:52 | -44.57364 | 169.94093 | 10038 ft | 134 kts | 244° |
| 2026-05-09 03:52 | -44.57665 | 169.93347 | 10036 ft | 133 kts | 245° |
| 2026-05-09 03:52 | -44.58110 | 169.92235 | 10031 ft | 131 kts | 244° |
| 2026-05-09 03:52 | -44.58564 | 169.91113 | 10031 ft | 131 kts | 245° |
| 2026-05-09 03:53 | -44.59012 | 169.89992 | 10026 ft | 132 kts | 245° |
| 2026-05-09 03:53 | -44.59465 | 169.88861 | 10026 ft | 132 kts | 244° |
| 2026-05-09 03:53 | -44.59914 | 169.87747 | 10024 ft | 131 kts | 245° |
| 2026-05-09 03:53 | -44.60360 | 169.86630 | 10023 ft | 133 kts | 244° |
| 2026-05-09 03:54 | -44.60815 | 169.85496 | 10023 ft | 133 kts | 245° |
| 2026-05-09 03:54 | -44.61270 | 169.84357 | 10023 ft | 134 kts | 245° |
| 2026-05-09 03:54 | -44.61724 | 169.83220 | 10021 ft | 134 kts | 245° |
| 2026-05-09 03:54 | -44.62184 | 169.82082 | 10019 ft | 133 kts | 244° |
| 2026-05-09 03:55 | -44.62631 | 169.80960 | 10013 ft | 132 kts | 244° |
| 2026-05-09 03:55 | -44.63088 | 169.79825 | 10009 ft | 133 kts | 245° |
| 2026-05-09 03:55 | -44.63538 | 169.78703 | 10011 ft | 132 kts | 244° |
| 2026-05-09 03:55 | -44.63987 | 169.77582 | 10016 ft | 131 kts | 244° |
| 2026-05-09 03:56 | -44.64431 | 169.76471 | 10017 ft | 131 kts | 244° |
| 2026-05-09 03:56 | -44.64886 | 169.75340 | 10018 ft | 132 kts | 244° |
| 2026-05-09 03:56 | -44.65332 | 169.74217 | 10022 ft | 131 kts | 244° |
| 2026-05-09 03:56 | -44.65775 | 169.73111 | 10018 ft | 130 kts | 244° |
| 2026-05-09 03:57 | -44.66216 | 169.72011 | 10019 ft | 129 kts | 245° |
| 2026-05-09 03:57 | -44.66655 | 169.70906 | 10018 ft | 129 kts | 245° |
| 2026-05-09 03:57 | -44.67096 | 169.69801 | 10019 ft | 129 kts | 246° |
| 2026-05-09 03:57 | -44.67537 | 169.68694 | 10022 ft | 129 kts | 245° |
| 2026-05-09 03:58 | -44.67969 | 169.67606 | 10022 ft | 129 kts | 244° |
| 2026-05-09 03:58 | -44.68414 | 169.66493 | 10021 ft | 129 kts | 245° |
| 2026-05-09 03:58 | -44.68848 | 169.65398 | 10020 ft | 129 kts | 244° |
| 2026-05-09 03:58 | -44.69286 | 169.64293 | 10022 ft | 128 kts | 244° |
| 2026-05-09 03:59 | -44.69718 | 169.63207 | 10017 ft | 128 kts | 244° |
| 2026-05-09 03:59 | -44.70155 | 169.62109 | 10012 ft | 129 kts | 244° |
| 2026-05-09 03:59 | -44.70588 | 169.61020 | 10006 ft | 129 kts | 245° |
| 2026-05-09 03:59 | -44.71023 | 169.59918 | 10008 ft | 128 kts | 244° |
| 2026-05-09 04:00 | -44.71458 | 169.58830 | 10001 ft | 129 kts | 244° |
| 2026-05-09 04:00 | -44.71896 | 169.57719 | 10001 ft | 129 kts | 244° |
| 2026-05-09 04:00 | -44.72334 | 169.56613 | 10004 ft | 129 kts | 244° |
| 2026-05-09 04:00 | -44.72772 | 169.55512 | 10003 ft | 129 kts | 245° |
| 2026-05-09 04:01 | -44.73209 | 169.54405 | 10006 ft | 130 kts | 245° |
| 2026-05-09 04:01 | -44.73640 | 169.53317 | 10011 ft | 128 kts | 244° |
| 2026-05-09 04:01 | -44.74068 | 169.52235 | 10009 ft | 128 kts | 245° |
| 2026-05-09 04:01 | -44.74504 | 169.51129 | 10009 ft | 129 kts | 244° |
| 2026-05-09 04:02 | -44.74940 | 169.50030 | 10019 ft | 127 kts | 245° |
| 2026-05-09 04:02 | -44.75365 | 169.48949 | 10020 ft | 127 kts | 244° |
| 2026-05-09 04:02 | -44.75800 | 169.47864 | 10026 ft | 126 kts | 245° |
| 2026-05-09 04:02 | -44.76215 | 169.46796 | 10025 ft | 125 kts | 244° |
| 2026-05-09 04:03 | -44.76637 | 169.45743 | 10022 ft | 125 kts | 245° |
| 2026-05-09 04:03 | -44.77055 | 169.44669 | 10022 ft | 125 kts | 244° |
| 2026-05-09 04:03 | -44.77482 | 169.43596 | 10023 ft | 126 kts | 244° |
| 2026-05-09 04:03 | -44.77900 | 169.42529 | 10026 ft | 124 kts | 244° |
| 2026-05-09 04:04 | -44.78319 | 169.41473 | 10026 ft | 123 kts | 245° |
| 2026-05-09 04:04 | -44.78733 | 169.40420 | 10033 ft | 124 kts | 245° |
| 2026-05-09 04:04 | -44.79153 | 169.39355 | 10034 ft | 125 kts | 245° |
| 2026-05-09 04:04 | -44.79569 | 169.38294 | 10037 ft | 124 kts | 245° |
| 2026-05-09 04:05 | -44.79988 | 169.37230 | 10027 ft | 124 kts | 245° |
| 2026-05-09 04:05 | -44.80415 | 169.36150 | 10026 ft | 125 kts | 245° |
| 2026-05-09 04:05 | -44.80832 | 169.35083 | 10027 ft | 124 kts | 244° |
| 2026-05-09 04:05 | -44.81278 | 169.34039 | 10028 ft | 125 kts | 243° |
| 2026-05-09 04:06 | -44.81631 | 169.32945 | 10026 ft | 123 kts | 252° |
| 2026-05-09 04:06 | -44.81856 | 169.31764 | 10019 ft | 124 kts | 257° |
| 2026-05-09 04:06 | -44.82055 | 169.30594 | 10021 ft | 124 kts | 256° |
| 2026-05-09 04:06 | -44.82253 | 169.29421 | 10024 ft | 123 kts | 257° |
| 2026-05-09 04:07 | -44.82452 | 169.28252 | 10024 ft | 123 kts | 257° |
| 2026-05-09 04:07 | -44.82647 | 169.27078 | 10021 ft | 124 kts | 257° |
| 2026-05-09 04:07 | -44.82848 | 169.25886 | 10024 ft | 123 kts | 256° |
| 2026-05-09 04:07 | -44.83045 | 169.24721 | 10024 ft | 123 kts | 256° |
| 2026-05-09 04:08 | -44.83239 | 169.23552 | 10038 ft | 121 kts | 256° |
| 2026-05-09 04:08 | -44.83429 | 169.22400 | 10039 ft | 122 kts | 257° |
| 2026-05-09 04:08 | -44.83623 | 169.21256 | 10039 ft | 120 kts | 256° |
| 2026-05-09 04:08 | -44.83812 | 169.20099 | 10030 ft | 120 kts | 257° |
| 2026-05-09 04:09 | -44.84005 | 169.18959 | 10036 ft | 120 kts | 257° |
| 2026-05-09 04:09 | -44.84190 | 169.17812 | 10034 ft | 119 kts | 257° |
| 2026-05-09 04:09 | -44.84380 | 169.16670 | 10032 ft | 119 kts | 257° |
| 2026-05-09 04:09 | -44.84417 | 169.15500 | 10036 ft | 123 kts | 272° |
| 2026-05-09 04:10 | -44.84151 | 169.14351 | 10030 ft | 125 kts | 276° |
| 2026-05-09 04:10 | -44.84369 | 169.13207 | 10052 ft | 123 kts | 242° |
| 2026-05-09 04:10 | -44.84848 | 169.12242 | 10032 ft | 124 kts | 236° |
| 2026-05-09 04:10 | -44.85510 | 169.11443 | 10025 ft | 128 kts | 227° |
| 2026-05-09 04:11 | -44.86240 | 169.10719 | 9899 ft | 129 kts | 225° |
| 2026-05-09 04:11 | -44.86975 | 169.09975 | 9650 ft | 130 kts | 225° |
| 2026-05-09 04:11 | -44.87719 | 169.09270 | 9405 ft | 131 kts | 223° |
| 2026-05-09 04:11 | -44.88499 | 169.08597 | 9163 ft | 135 kts | 219° |
| 2026-05-09 04:12 | -44.89353 | 169.08012 | 8915 ft | 139 kts | 214° |
| 2026-05-09 04:12 | -44.90287 | 169.07544 | 8667 ft | 144 kts | 209° |
| 2026-05-09 04:12 | -44.91266 | 169.07176 | 8421 ft | 146 kts | 206° |
| 2026-05-09 04:12 | -44.92252 | 169.06851 | 8174 ft | 148 kts | 204° |
| 2026-05-09 04:13 | -44.93241 | 169.06545 | 7932 ft | 150 kts | 201° |
| 2026-05-09 04:13 | -44.94292 | 169.06442 | 7728 ft | 158 kts | 188° |
| 2026-05-09 04:13 | -44.95405 | 169.06583 | 7523 ft | 160 kts | 185° |
| 2026-05-09 04:13 | -44.96512 | 169.06689 | 7326 ft | 160 kts | 186° |
| 2026-05-09 04:14 | -44.97635 | 169.06801 | 7125 ft | 163 kts | 181° |
| 2026-05-09 04:14 | -44.98751 | 169.07211 | 6928 ft | 166 kts | 174° |
| 2026-05-09 04:14 | -44.99830 | 169.07175 | 6706 ft | 151 kts | 209° |
| 2026-05-09 04:14 | -45.00739 | 169.06483 | 6453 ft | 147 kts | 220° |
| 2026-05-09 04:15 | -45.01572 | 169.05653 | 6207 ft | 147 kts | 227° |
| 2026-05-09 04:15 | -45.02266 | 169.04658 | 5964 ft | 143 kts | 239° |
| 2026-05-09 04:15 | -45.02800 | 169.03488 | 5712 ft | 140 kts | 249° |
| 2026-05-09 04:15 | -45.03185 | 169.02235 | 5461 ft | 138 kts | 255° |
| 2026-05-09 04:16 | -45.03471 | 169.00954 | 5210 ft | 138 kts | 265° |
| 2026-05-09 04:16 | -45.03444 | 168.99684 | 4973 ft | 135 kts | 279° |
| 2026-05-09 04:16 | -45.03313 | 168.98312 | 4710 ft | 135 kts | 282° |
| 2026-05-09 04:16 | -45.03086 | 168.97011 | 4498 ft | 136 kts | 290° |
| 2026-05-09 04:17 | -45.02788 | 168.95741 | 4297 ft | 137 kts | 296° |
| 2026-05-09 04:17 | -45.02303 | 168.94592 | 4094 ft | 137 kts | 300° |
| 2026-05-09 04:17 | -45.01876 | 168.93398 | 3898 ft | 137 kts | 296° |
| 2026-05-09 04:17 | -45.01450 | 168.92171 | 3685 ft | 143 kts | 298° |
| 2026-05-09 04:18 | -45.00991 | 168.90915 | 3498 ft | 149 kts | 301° |
| 2026-05-09 04:18 | -45.00225 | 168.89865 | 3313 ft | 155 kts | 318° |
| 2026-05-09 04:18 | -44.99753 | 168.88469 | 3140 ft | 161 kts | 282° |
| 2026-05-09 04:18 | -44.99721 | 168.86905 | 2960 ft | 163 kts | 264° |
| 2026-05-09 04:19 | -44.99962 | 168.85309 | 2779 ft | 164 kts | 257° |
| 2026-05-09 04:19 | -45.00187 | 168.83765 | 2620 ft | 155 kts | 259° |
| 2026-05-09 04:19 | -45.00385 | 168.82364 | 2433 ft | 132 kts | 257° |
| 2026-05-09 04:19 | -45.00588 | 168.81160 | 2173 ft | 122 kts | 254° |
| 2026-05-09 04:20 | -45.00809 | 168.80014 | 1914 ft | 121 kts | 253° |
| 2026-05-09 04:20 | -45.01029 | 168.78880 | 1733 ft | 113 kts | 249° |
| 2026-05-09 04:20 | -45.01273 | 168.77873 | 1575 ft | 103 kts | 250° |
| 2026-05-09 04:20 | -45.01503 | 168.76949 | 1479 ft | 95 kts | 256° |
| 2026-05-09 04:21 | -45.01618 | 168.76080 | 1387 ft | 82 kts | 259° |
| 2026-05-09 04:21 | -45.01704 | 168.75407 | 1333 ft | 55 kts | 258° |
| 2026-05-09 04:21 | -45.01852 | 168.74521 | 1272 ft | 42 kts | 250° |
| 2026-05-09 04:22 | -45.01897 | 168.74220 | 1214 ft | 16 kts | 232° |
| 2026-05-09 04:22 | -45.01917 | 168.74149 | 1198 ft | 3 kts | 230° |
| 2026-05-09 04:22 | -45.01959 | 168.74107 | 1191 ft | 5 kts | 209° |
| 2026-05-09 04:22 | -45.01988 | 168.74087 | 1188 ft | 5 kts | 208° |
| 2026-05-09 04:23 | -45.02007 | 168.74077 | 1184 ft | 1 kts | 207° |
| 2026-05-09 04:23 | -45.02015 | 168.74072 | 1177 ft | 1 kts | 208° |
| 2026-05-09 04:23 | -45.02026 | 168.74065 | 1175 ft | 1 kts | 201° |
| 2026-05-09 04:23 | -45.02027 | 168.74063 | 1175 ft | 0 kts | 200° |
| 2026-05-09 04:24 | -45.02058 | 168.74054 | 1190 ft | 16 kts | 169° |
| 2026-05-09 04:24 | -45.02172 | 168.74182 | 1207 ft | 25 kts | 158° |
| 2026-05-09 04:25 | -45.02318 | 168.74231 | 1210 ft | 15 kts | 230° |
| 2026-05-09 04:25 | -45.02364 | 168.74048 | 1198 ft | 25 kts | 259° |
| 2026-05-09 04:25 | -45.02428 | 168.73903 | 1190 ft | 9 kts | 203° |
| 2026-05-09 04:25 | -45.02458 | 168.73877 | 1194 ft | 4 kts | 204° |
| 2026-05-09 04:26 | -45.02488 | 168.73874 | 1192 ft | 3 kts | 203° |
| 2026-05-09 04:26 | -45.02502 | 168.73869 | 1190 ft | 1 kts | 228° |
| 2026-05-09 04:26 | -45.02502 | 168.73866 | 1180 ft | 0 kts | 236° |
| 2026-05-09 04:26 | -45.02500 | 168.73866 | 1175 ft | 0 kts | 231° |